createdAt,value
2018-08-19T00:00:08.689Z,12.37
2018-08-19T00:02:36.342Z,14.07
2018-08-19T00:05:13.584Z,13.07
2018-08-19T00:07:41.221Z,13.30
2018-08-19T00:10:08.945Z,13.03
2018-08-19T00:12:38.597Z,14.53
2018-08-19T00:15:06.502Z,13.50
2018-08-19T00:17:34.249Z,12.87
2018-08-19T00:20:01.893Z,13.50
2018-08-19T00:22:29.541Z,14.23
2018-08-19T00:24:57.186Z,14.10
2018-08-19T00:27:24.814Z,11.70
2018-08-19T00:29:52.807Z,15.10
2018-08-19T00:32:20.541Z,13.13
2018-08-19T00:34:48.171Z,12.50
2018-08-19T00:37:15.933Z,13.23
2018-08-19T00:39:43.560Z,14.23
2018-08-19T00:42:11.274Z,14.80
2018-08-19T00:44:40.545Z,14.47
2018-08-19T00:47:09.054Z,15.43
2018-08-19T00:49:36.816Z,14.27
2018-08-19T00:52:06.781Z,14.27
2018-08-19T00:54:34.478Z,15.10
2018-08-19T00:57:02.273Z,15.20
2018-08-19T00:59:31.140Z,15.47
2018-08-19T01:01:58.882Z,15.90
2018-08-19T01:04:27.064Z,14.73
2018-08-19T01:06:56.991Z,14.73
2018-08-19T01:09:26.590Z,12.37
2018-08-19T01:11:54.337Z,13.30
2018-08-19T01:14:22.042Z,13.83
2018-08-19T01:16:49.774Z,14.30
2018-08-19T01:19:18.157Z,14.00
2018-08-19T01:21:50.245Z,13.43
2018-08-19T01:24:18.022Z,14.50
2018-08-19T01:26:45.725Z,14.87
2018-08-19T01:29:13.697Z,12.27
2018-08-19T01:31:41.457Z,13.37
2018-08-19T01:34:10.290Z,15.27
2018-08-19T01:36:37.981Z,14.80
2018-08-19T01:39:09.113Z,14.40
2018-08-19T01:41:37.674Z,13.27
2018-08-19T01:44:14.797Z,12.70
2018-08-19T01:46:45.065Z,12.63
2018-08-19T01:49:12.717Z,12.73
2018-08-19T01:51:41.502Z,12.77
2018-08-19T01:54:14.897Z,14.90
2018-08-19T01:56:43.006Z,13.67
2018-08-19T01:59:10.686Z,14.90
2018-08-19T02:01:45.726Z,13.90
2018-08-19T02:04:13.589Z,14.83
2018-08-19T02:06:42.353Z,11.70
2018-08-19T02:09:11.815Z,14.27
2018-08-19T02:11:43.661Z,13.97
2018-08-19T02:14:11.382Z,14.07
2018-08-19T02:16:39.356Z,13.60
2018-08-19T02:19:07.058Z,14.50
2018-08-19T02:21:34.743Z,15.67
2018-08-19T02:24:02.474Z,14.33
2018-08-19T02:26:30.633Z,15.30
2018-08-19T02:28:58.850Z,14.90
2018-08-19T02:31:26.509Z,13.63
2018-08-19T02:33:54.187Z,15.83
2018-08-19T02:36:21.825Z,15.20
2018-08-19T02:38:49.482Z,14.40
2018-08-19T02:41:17.242Z,15.67
2018-08-19T02:43:49.505Z,16.50
2018-08-19T02:46:17.562Z,15.40
2018-08-19T02:48:49.834Z,15.37
2018-08-19T02:51:18.605Z,14.67
2018-08-19T02:53:47.525Z,15.50
2018-08-19T02:56:15.869Z,14.90
2018-08-19T02:58:44.489Z,16.03
2018-08-19T03:01:13.132Z,15.97
2018-08-19T03:03:40.794Z,16.07
2018-08-19T03:06:08.655Z,15.93
2018-08-19T03:08:43.825Z,16.23
2018-08-19T03:11:12.198Z,15.50
2018-08-19T03:13:39.819Z,16.17
2018-08-19T03:16:07.528Z,14.40
2018-08-19T03:18:35.162Z,15.20
2018-08-19T03:21:02.866Z,14.60
2018-08-19T03:23:30.524Z,14.13
2018-08-19T03:25:58.669Z,15.23
2018-08-19T03:28:26.314Z,15.10
2018-08-19T03:31:00.533Z,15.23
2018-08-19T03:33:28.376Z,15.53
2018-08-19T03:35:56.043Z,15.30
2018-08-19T03:38:25.070Z,14.53
2018-08-19T03:40:53.782Z,16.10
2018-08-19T03:43:21.414Z,14.87
2018-08-19T03:45:49.049Z,15.40
2018-08-19T03:48:16.700Z,15.73
2018-08-19T03:50:44.338Z,14.53
2018-08-19T03:53:13.433Z,15.93
2018-08-19T03:55:41.110Z,15.80
2018-08-19T03:58:09.876Z,14.87
2018-08-19T04:00:41.702Z,16.23
2018-08-19T04:03:18.023Z,16.17
2018-08-19T04:05:49.273Z,14.73
2018-08-19T04:08:16.922Z,15.70
2018-08-19T04:10:45.631Z,14.40
2018-08-19T04:13:26.789Z,14.53
2018-08-19T04:16:05.166Z,14.83
2018-08-19T04:18:36.167Z,15.27
2018-08-19T04:21:06.113Z,15.33
2018-08-19T04:23:34.166Z,15.33
2018-08-19T04:26:02.309Z,13.80
2018-08-19T04:28:30.079Z,15.00
2018-08-19T04:30:57.914Z,14.77
2018-08-19T04:33:31.731Z,14.40
2018-08-19T04:35:59.524Z,13.20
2018-08-19T04:38:28.045Z,14.67
2018-08-19T04:40:56.441Z,14.40
2018-08-19T04:43:25.948Z,15.37
2018-08-19T04:45:53.868Z,14.03
2018-08-19T04:48:21.574Z,14.10
2018-08-19T04:50:51.282Z,13.20
2018-08-19T04:53:19.190Z,15.73
2018-08-19T04:55:46.872Z,14.70
2018-08-19T04:58:14.662Z,15.30
2018-08-19T05:00:42.697Z,14.97
2018-08-19T05:03:10.661Z,14.40
2018-08-19T05:05:38.620Z,14.70
2018-08-19T05:08:07.253Z,13.93
2018-08-19T05:10:34.782Z,15.17
2018-08-19T05:13:02.409Z,15.67
2018-08-19T05:15:30.166Z,14.90
2018-08-19T05:17:57.944Z,14.20
2018-08-19T05:20:25.618Z,13.67
2018-08-19T05:22:53.237Z,15.60
2018-08-19T05:25:20.909Z,13.70
2018-08-19T05:27:54.093Z,15.00
2018-08-19T05:30:21.768Z,14.77
2018-08-19T05:32:54.957Z,14.40
2018-08-19T05:35:22.601Z,16.90
2018-08-19T05:37:50.287Z,13.83
2018-08-19T05:40:17.911Z,14.37
2018-08-19T05:42:45.557Z,14.80
2018-08-19T05:45:13.193Z,14.70
2018-08-19T05:47:40.851Z,14.87
2018-08-19T05:50:08.505Z,14.93
2018-08-19T05:52:36.186Z,15.60
2018-08-19T05:55:04.120Z,14.50
2018-08-19T05:57:33.177Z,13.43
2018-08-19T06:05:31.837Z,14.50
2018-08-19T06:08:07.345Z,14.23
2018-08-19T06:10:35.073Z,15.00
2018-08-19T06:13:02.713Z,14.63
2018-08-19T06:15:30.429Z,14.30
2018-08-19T06:17:58.323Z,15.13
2018-08-19T06:20:27.984Z,16.33
2018-08-19T06:22:55.857Z,16.00
2018-08-19T06:25:23.637Z,15.30
2018-08-19T06:27:53.792Z,14.07
2018-08-19T06:30:21.498Z,15.03
2018-08-19T06:32:49.188Z,14.97
2018-08-19T06:35:16.878Z,13.80
2018-08-19T06:37:44.591Z,15.60
2018-08-19T06:40:15.413Z,15.53
2018-08-19T06:42:43.165Z,15.60
2018-08-19T06:45:11.660Z,15.53
2018-08-19T06:47:39.563Z,15.37
2018-08-19T06:50:16.322Z,12.53
2018-08-19T06:52:44.067Z,14.63
2018-08-19T06:55:13.385Z,13.20
2018-08-19T06:57:41.650Z,13.90
2018-08-19T07:00:14.953Z,13.57
2018-08-19T07:02:42.733Z,14.00
2018-08-19T07:05:10.498Z,14.50
2018-08-19T07:07:38.203Z,15.20
2018-08-19T07:10:06.183Z,13.27
2018-08-19T07:12:33.924Z,14.07
2018-08-19T07:15:01.579Z,14.27
2018-08-19T07:17:29.264Z,13.13
2018-08-19T07:19:56.941Z,13.47
2018-08-19T07:22:24.603Z,12.97
2018-08-19T07:24:52.242Z,14.70
2018-08-19T07:27:19.981Z,12.70
2018-08-19T07:29:47.668Z,12.70
2018-08-19T07:32:15.339Z,13.80
2018-08-19T07:34:42.975Z,14.10
2018-08-19T07:37:10.699Z,13.73
2018-08-19T07:39:45.259Z,13.27
2018-08-19T07:42:13.268Z,12.53
2018-08-19T07:44:40.906Z,12.67
2018-08-19T07:47:08.580Z,12.57
2018-08-19T07:49:36.257Z,12.00
2018-08-19T07:52:04.002Z,12.13
2018-08-19T07:54:33.039Z,12.17
2018-08-19T07:57:10.254Z,12.80
2018-08-19T07:59:37.910Z,11.93
2018-08-19T08:02:06.588Z,11.83
2018-08-19T08:04:38.800Z,10.70
2018-08-19T08:07:06.441Z,11.43
2018-08-19T08:09:34.088Z,11.27
2018-08-19T08:12:01.730Z,10.43
2018-08-19T08:14:30.609Z,11.60
2018-08-19T08:16:58.321Z,10.67
2018-08-19T08:19:25.982Z,10.97
2018-08-19T08:22:01.782Z,11.70
2018-08-19T08:24:29.987Z,11.87
2018-08-19T08:26:57.738Z,9.30
2018-08-19T08:29:25.510Z,9.33
2018-08-19T08:31:56.994Z,11.47
2018-08-19T08:34:26.576Z,10.10
2018-08-19T08:37:01.238Z,8.83
2018-08-19T08:39:29.503Z,9.83
2018-08-19T08:41:57.647Z,10.47
2018-08-19T08:44:25.554Z,11.10
2018-08-19T08:46:53.253Z,8.93
2018-08-19T08:49:20.929Z,8.70
2018-08-19T08:51:48.589Z,8.77
2018-08-19T08:54:16.375Z,9.37
2018-08-19T08:56:44.063Z,8.93
2018-08-19T08:59:12.462Z,9.10
2018-08-19T09:01:40.142Z,9.20
2018-08-19T09:04:07.838Z,9.23
2018-08-19T09:06:35.509Z,9.80
2018-08-19T09:09:04.279Z,9.60
2018-08-19T09:11:32.103Z,9.33
2018-08-19T09:13:59.851Z,9.10
2018-08-19T09:16:27.760Z,9.50
2018-08-19T09:18:55.800Z,8.97
2018-08-19T09:21:23.560Z,9.63
2018-08-19T09:23:51.287Z,7.90
2018-08-19T09:26:19.041Z,9.10
2018-08-19T09:28:46.734Z,7.57
2018-08-19T09:31:14.433Z,7.93
2018-08-19T09:33:42.119Z,7.30
2018-08-19T09:36:09.839Z,8.10
2018-08-19T09:38:37.658Z,7.23
2018-08-19T09:41:05.698Z,7.33
2018-08-19T09:43:33.995Z,8.03
2018-08-19T09:46:01.773Z,7.70
2018-08-19T09:48:29.737Z,7.20
2018-08-19T09:51:02.147Z,5.50
2018-08-19T09:53:29.993Z,5.50
2018-08-19T09:56:03.350Z,5.60
2018-08-19T09:58:31.104Z,6.00
2018-08-19T10:01:04.532Z,5.83
2018-08-19T10:03:32.375Z,4.90
2018-08-19T10:06:00.175Z,5.80
2018-08-19T10:08:27.950Z,4.90
2018-08-19T10:10:55.743Z,5.87
2018-08-19T10:13:23.455Z,4.90
2018-08-19T10:15:51.187Z,4.83
2018-08-19T10:18:19.012Z,5.13
2018-08-19T10:20:46.749Z,4.67
2018-08-19T10:23:14.620Z,5.60
2018-08-19T10:25:42.542Z,5.53
2018-08-19T10:28:10.260Z,6.00
2018-08-19T10:30:44.399Z,5.33
2018-08-19T10:33:12.231Z,5.47
2018-08-19T10:35:39.959Z,5.60
2018-08-19T10:38:07.685Z,5.83
2018-08-19T10:40:35.337Z,6.10
2018-08-19T10:43:10.603Z,5.20
2018-08-19T10:45:42.141Z,5.80
2018-08-19T10:48:12.748Z,6.13
2018-08-19T10:50:40.467Z,5.10
2018-08-19T10:53:14.495Z,6.03
2018-08-19T10:55:42.539Z,6.10
2018-08-19T10:58:10.223Z,6.13
2018-08-19T11:00:37.863Z,6.20
2018-08-19T11:03:27.074Z,6.80
2018-08-19T11:05:55.698Z,5.13
2018-08-19T11:08:23.437Z,5.73
2018-08-19T11:10:51.210Z,5.90
2018-08-19T11:13:21.701Z,6.33
2018-08-19T11:15:51.495Z,6.13
2018-08-19T11:18:27.265Z,5.90
2018-08-19T11:21:06.587Z,6.23
2018-08-19T11:23:38.644Z,5.90
2018-08-19T11:26:06.542Z,5.60
2018-08-19T11:28:37.645Z,5.87
2018-08-19T11:31:06.018Z,5.97
2018-08-19T11:33:40.862Z,6.40
2018-08-19T11:36:09.235Z,6.07
2018-08-19T11:38:37.586Z,5.63
2018-08-19T11:41:06.506Z,6.40
2018-08-19T11:43:38.022Z,6.40
2018-08-19T11:46:06.206Z,6.10
2018-08-19T11:48:34.202Z,5.70
2018-08-19T11:51:01.893Z,6.20
2018-08-19T11:53:29.773Z,5.63
2018-08-19T11:55:57.897Z,6.47
2018-08-19T11:58:48.219Z,5.47
2018-08-19T12:01:17.398Z,6.10
2018-08-19T12:03:59.231Z,6.50
2018-08-19T12:06:29.116Z,6.30
2018-08-19T12:08:58.249Z,5.63
2018-08-19T12:11:27.717Z,6.47
2018-08-19T12:13:55.553Z,5.90
2018-08-19T12:16:25.402Z,6.50
2018-08-19T12:18:53.172Z,6.67
2018-08-19T12:21:22.040Z,6.87
2018-08-19T12:23:50.362Z,6.17
2018-08-19T12:26:18.490Z,6.90
2018-08-19T12:28:46.227Z,5.67
2018-08-19T12:31:15.442Z,6.37
2018-08-19T12:33:43.123Z,5.53
2018-08-19T12:36:10.845Z,7.30
2018-08-19T12:38:38.555Z,6.07
2018-08-19T12:41:06.307Z,5.30
2018-08-19T12:43:34.714Z,6.17
2018-08-19T12:46:02.847Z,5.73
2018-08-19T12:48:30.731Z,6.30
2018-08-19T12:51:03.007Z,6.10
2018-08-19T12:53:31.309Z,6.77
2018-08-19T12:55:59.077Z,6.47
2018-08-19T12:58:26.757Z,6.20
2018-08-19T13:00:54.412Z,7.03
2018-08-19T13:03:25.184Z,6.77
2018-08-19T13:06:00.670Z,6.00
2018-08-19T13:08:28.369Z,6.90
2018-08-19T13:10:59.690Z,7.10
2018-08-19T13:13:27.430Z,7.03
2018-08-19T13:15:55.084Z,7.13
2018-08-19T13:18:28.827Z,7.13
2018-08-19T13:21:02.019Z,7.53
2018-08-19T13:23:31.621Z,6.30
2018-08-19T13:25:59.411Z,6.60
2018-08-19T13:28:27.142Z,6.77
2018-08-19T13:30:54.817Z,6.37
2018-08-19T13:33:23.793Z,6.27
2018-08-19T13:35:51.495Z,7.53
2018-08-19T13:38:31.834Z,6.60
2018-08-19T13:41:00.587Z,6.80
2018-08-19T13:43:28.373Z,5.60
2018-08-19T13:45:56.042Z,6.00
2018-08-19T13:48:23.738Z,6.77
2018-08-19T13:50:51.399Z,6.40
2018-08-19T13:53:19.078Z,6.80
2018-08-19T13:55:46.769Z,6.20
2018-08-19T13:58:14.409Z,5.73
2018-08-19T14:00:42.126Z,6.50
2018-08-19T14:03:10.074Z,6.90
2018-08-19T14:05:37.973Z,6.87
2018-08-19T14:08:05.879Z,6.73
2018-08-19T14:10:33.572Z,6.90
2018-08-19T14:13:01.280Z,6.13
2018-08-19T14:15:28.982Z,7.10
2018-08-19T14:17:56.686Z,6.37
2018-08-19T14:20:24.442Z,6.23
2018-08-19T14:22:52.241Z,6.57
2018-08-19T14:25:20.010Z,6.63
2018-08-19T14:27:47.882Z,6.10
2018-08-19T14:30:15.700Z,6.80
2018-08-19T14:32:44.680Z,6.83
2018-08-19T14:35:12.481Z,7.07
2018-08-19T14:37:40.525Z,7.00
2018-08-19T14:40:10.288Z,6.57
2018-08-19T14:42:38.027Z,6.77
2018-08-19T14:45:06.129Z,7.47
2018-08-19T14:47:33.812Z,7.07
2018-08-19T14:50:01.527Z,7.13
2018-08-19T14:52:29.276Z,7.07
2018-08-19T14:54:57.035Z,6.30
2018-08-19T14:57:24.973Z,6.63
2018-08-19T14:59:52.740Z,6.40
2018-08-19T15:02:20.397Z,6.70
2018-08-19T15:04:48.242Z,6.10
2018-08-19T15:07:16.087Z,6.47
2018-08-19T15:09:50.005Z,5.90
2018-08-19T15:12:25.965Z,6.00
2018-08-19T15:14:57.864Z,6.80
2018-08-19T15:17:25.665Z,6.60
2018-08-19T15:19:53.765Z,6.73
2018-08-19T15:22:21.697Z,7.37
2018-08-19T15:24:49.767Z,6.67
2018-08-19T15:27:17.461Z,6.50
2018-08-19T15:29:47.017Z,6.47
2018-08-19T15:32:14.921Z,6.63
2018-08-19T15:34:42.518Z,6.50
2018-08-19T15:37:10.222Z,7.23
2018-08-19T15:39:37.871Z,6.80
2018-08-19T15:42:05.654Z,6.70
2018-08-19T15:44:33.266Z,6.03
2018-08-19T15:47:00.989Z,6.50
2018-08-19T15:49:28.789Z,6.30
2018-08-19T15:51:56.475Z,6.20
2018-08-19T15:54:24.180Z,5.90
2018-08-19T15:56:51.845Z,6.10
2018-08-19T15:59:19.461Z,6.07
2018-08-19T16:01:47.126Z,6.70
2018-08-19T16:04:21.478Z,6.67
2018-08-19T16:06:50.782Z,6.53
2018-08-19T16:09:19.823Z,6.20
2018-08-19T16:11:49.083Z,6.60
2018-08-19T16:14:23.082Z,6.63
2018-08-19T16:16:51.182Z,6.27
2018-08-19T16:19:18.870Z,6.13
2018-08-19T16:21:52.230Z,6.47
2018-08-19T16:24:19.980Z,6.07
2018-08-19T16:26:47.709Z,6.10
2018-08-19T16:29:15.360Z,6.30
2018-08-19T16:31:43.219Z,6.50
2018-08-19T16:34:11.016Z,5.83
2018-08-19T16:36:38.689Z,6.23
2018-08-19T16:39:08.989Z,5.83
2018-08-19T16:41:36.971Z,6.13
2018-08-19T16:44:04.728Z,6.20
2018-08-19T16:46:32.414Z,6.40
2018-08-19T16:49:00.075Z,5.80
2018-08-19T16:51:27.783Z,6.50
2018-08-19T16:53:55.486Z,6.47
2018-08-19T16:56:23.174Z,6.37
2018-08-19T16:58:50.871Z,6.03
2018-08-19T17:01:18.515Z,5.53
2018-08-19T17:03:46.175Z,6.87
2018-08-19T17:06:14.552Z,6.10
2018-08-19T17:08:42.712Z,5.60
2018-08-19T17:11:11.644Z,5.90
2018-08-19T17:13:39.459Z,5.40
2018-08-19T17:16:07.390Z,6.20
2018-08-19T17:18:35.201Z,6.13
2018-08-19T17:21:03.015Z,5.90
2018-08-19T17:23:30.871Z,5.87
2018-08-19T17:26:14.728Z,6.67
2018-08-19T17:28:42.267Z,6.20
2018-08-19T17:31:09.934Z,5.37
2018-08-19T17:33:37.631Z,6.60
2018-08-19T17:36:05.327Z,5.90
2018-08-19T17:38:34.407Z,5.70
2018-08-19T17:41:02.463Z,5.77
2018-08-19T17:43:35.817Z,6.73
2018-08-19T17:46:09.810Z,5.73
2018-08-19T17:48:38.896Z,6.10
2018-08-19T17:51:18.477Z,5.77
2018-08-19T17:53:46.152Z,6.03
2018-08-19T17:56:13.833Z,5.57
2018-08-19T17:58:41.550Z,5.90
2018-08-19T18:01:09.209Z,6.27
2018-08-19T18:03:36.885Z,6.50
2018-08-19T18:06:04.718Z,6.33
2018-08-19T18:08:32.387Z,6.57
2018-08-19T18:11:00.076Z,6.47
2018-08-19T18:13:29.896Z,6.07
2018-08-19T18:15:57.601Z,5.80
2018-08-19T18:18:25.294Z,6.50
2018-08-19T18:20:52.955Z,6.37
2018-08-19T18:23:25.652Z,5.90
2018-08-19T18:25:53.410Z,6.53
2018-08-19T18:28:24.427Z,6.10
2018-08-19T18:31:07.571Z,6.17
2018-08-19T18:33:41.541Z,6.33
2018-08-19T18:36:09.199Z,6.27
2018-08-19T18:38:36.886Z,5.87
2018-08-19T18:41:04.746Z,7.07
2018-08-19T18:43:32.426Z,6.60
2018-08-19T18:46:00.229Z,5.63
2018-08-19T18:48:27.850Z,6.20
2018-08-19T18:50:56.110Z,5.70
2018-08-19T18:53:24.382Z,5.73
2018-08-19T18:55:51.993Z,5.80
2018-08-19T18:58:19.703Z,6.53
2018-08-19T19:00:52.917Z,6.60
2018-08-19T19:03:20.552Z,6.03
2018-08-19T19:05:48.221Z,6.40
2018-08-19T19:08:17.662Z,5.57
2018-08-19T19:10:56.047Z,5.60
2018-08-19T19:13:24.727Z,5.63
2018-08-19T19:15:52.382Z,6.03
2018-08-19T19:18:20.126Z,6.70
2018-08-19T19:20:52.321Z,6.33
2018-08-19T19:23:24.963Z,5.80
2018-08-19T19:25:52.669Z,6.40
2018-08-19T19:28:20.447Z,6.40
2018-08-19T19:30:48.520Z,5.70
2018-08-19T19:33:16.231Z,7.20
2018-08-19T19:35:43.898Z,6.10
2018-08-19T19:38:11.706Z,6.57
2018-08-19T19:40:39.417Z,5.70
2018-08-19T19:43:07.100Z,6.70
2018-08-19T19:46:07.126Z,7.33
2018-08-19T19:48:34.758Z,6.70
2018-08-19T19:51:02.565Z,7.80
2018-08-19T19:53:30.285Z,8.77
2018-08-19T19:56:16.370Z,7.67
2018-08-19T19:58:45.093Z,8.03
2018-08-19T20:01:12.977Z,7.97
2018-08-19T20:03:46.228Z,7.27
2018-08-19T20:06:13.918Z,6.40
2018-08-19T20:08:41.546Z,6.30
2018-08-19T20:11:21.012Z,7.20
2018-08-19T20:13:49.127Z,7.23
2018-08-19T20:16:16.870Z,7.80
2018-08-19T20:18:44.535Z,7.00
2018-08-19T20:21:16.719Z,6.90
2018-08-19T20:23:44.364Z,7.30
2018-08-19T20:26:12.016Z,7.10
2018-08-19T20:28:39.650Z,7.30
2018-08-19T20:31:07.611Z,8.30
2018-08-19T20:33:35.240Z,7.50
2018-08-19T20:36:02.967Z,6.80
2018-08-19T20:38:30.623Z,6.97
2018-08-19T20:40:58.280Z,7.33
2018-08-19T20:43:25.942Z,6.97
2018-08-19T20:45:53.579Z,7.47
2018-08-19T20:48:21.916Z,7.47
2018-08-19T20:50:50.074Z,7.30
2018-08-19T20:53:18.082Z,6.80
2018-08-19T20:55:45.907Z,6.90
2018-08-19T20:58:13.613Z,8.17
2018-08-19T21:00:41.285Z,7.90
2018-08-19T21:03:09.329Z,8.57
2018-08-19T21:05:37.470Z,8.63
2018-08-19T21:08:10.117Z,8.20
2018-08-19T21:10:39.568Z,9.27
2018-08-19T21:13:07.862Z,7.90
2018-08-19T21:15:38.661Z,8.40
2018-08-19T21:18:07.065Z,8.93
2018-08-19T21:20:34.802Z,7.40
2018-08-19T21:23:03.221Z,8.03
2018-08-19T21:25:30.866Z,8.57
2018-08-19T21:27:58.522Z,8.30
2018-08-19T21:30:26.201Z,8.50
2018-08-19T21:32:54.789Z,9.03
2018-08-19T21:35:22.434Z,8.20
2018-08-19T21:37:50.073Z,8.10
2018-08-19T21:40:24.965Z,8.10
2018-08-19T21:42:55.304Z,8.60
2018-08-19T21:45:23.006Z,10.03
2018-08-19T21:47:50.682Z,7.60
2018-08-19T21:50:18.345Z,8.07
2018-08-19T21:52:58.261Z,8.80
2018-08-19T21:55:28.710Z,8.33
2018-08-19T21:57:56.372Z,9.33
2018-08-19T22:00:26.165Z,7.67
2018-08-19T22:03:57.454Z,9.67
2018-08-19T22:06:25.078Z,9.80
2018-08-19T22:08:52.719Z,9.73
2018-08-19T22:11:20.338Z,8.80
2018-08-19T22:13:47.997Z,8.37
2018-08-19T22:16:15.648Z,9.40
2018-08-19T22:18:43.303Z,8.73
2018-08-19T22:21:16.789Z,9.17
2018-08-19T22:23:45.644Z,8.20
2018-08-19T22:26:15.344Z,8.47
2018-08-19T22:28:43.320Z,9.23
2018-08-19T22:31:22.918Z,8.83
2018-08-19T22:33:52.542Z,8.60
2018-08-19T22:36:20.527Z,9.10
2018-08-19T22:38:48.597Z,8.20
2018-08-19T22:41:23.744Z,10.03
2018-08-19T22:43:52.161Z,9.17
2018-08-19T22:46:19.849Z,8.87
2018-08-19T22:48:47.573Z,8.97
2018-08-19T22:51:15.324Z,8.47
2018-08-19T22:53:42.941Z,9.20
2018-08-19T22:56:10.614Z,9.17
2018-08-19T22:58:38.257Z,8.90
2018-08-19T23:01:06.360Z,9.43
2018-08-19T23:03:34.058Z,9.93
2018-08-19T23:06:01.713Z,9.00
2018-08-19T23:08:30.557Z,9.40
2018-08-19T23:10:59.393Z,9.33
2018-08-19T23:13:38.486Z,9.27
2018-08-19T23:16:08.095Z,9.73
2018-08-19T23:18:36.305Z,8.97
2018-08-19T23:21:04.042Z,9.00
2018-08-19T23:23:31.990Z,9.53
2018-08-19T23:25:59.677Z,9.20
2018-08-19T23:28:27.390Z,10.10
2018-08-19T23:30:55.405Z,10.13
2018-08-19T23:33:23.073Z,9.90
2018-08-19T23:35:50.711Z,9.83
2018-08-19T23:38:18.398Z,9.83
2018-08-19T23:40:46.199Z,9.77
2018-08-19T23:43:14.265Z,9.10
2018-08-19T23:45:41.935Z,10.63
2018-08-19T23:48:09.867Z,11.23
2018-08-19T23:50:38.478Z,10.17
2018-08-19T23:53:06.610Z,10.00
2018-08-19T23:55:34.590Z,9.73
2018-08-19T23:58:02.282Z,10.63
